Terminal Aerodrome Forecast
Issued by NWS Cleveland, OH

Home | Current Version | Previous Version | Graphics & Text | Print | Product List | Glossary Off
Versions: 1 2 3 4 5 6 7 8 9 10 11 12 13 14 15 16 17 18 19

000
FTUS41 KCLE 291100
TAFCAK
TAF
KCAK 291137Z 2912/3012 21008KT P6SM SKC
     FM291600 20012G22KT P6SM SCT100 BKN200
     FM300100 21015G25KT 5SM -SHRASN OVC045
     FM300500 21015G25KT 6SM -SHRA OVC025
     FM300700 25012G22KT P6SM SCT006 OVC018=

USA.gov is the U.S. government's official web portal to all federal, state and local government web resources and services.